Time;durP1;ratioP1;P1;durP2;ratioP2;P2;SDS_P1;SDS_P2;PMS_P1;PMS_P2;Temp;Humidity;BMP_temperature;BMP_pressure;BME280_temperature;BME280_humidity;BME280_pressure;Samples;Min_cycle;Max_cycle;Signal;HPM_P1;HPM_P2
2021/08/24 00:02:16;;;;;;;2.73;2.53;;;17.40;99.90;;;;;;5052739;28;20444;-61
2021/08/24 00:04:43;;;;;;;2.40;2.20;;;17.30;99.90;;;;;;5053919;28;20471;-61
2021/08/24 00:07:10;;;;;;;2.57;2.23;;;17.30;99.90;;;;;;5052858;28;20502;-61
2021/08/24 00:09:37;;;;;;;2.43;2.23;;;17.20;99.90;;;;;;5053096;28;21301;-60
2021/08/24 00:12:06;;;;;;;2.77;2.57;;;17.20;99.90;;;;;;5052004;28;20456;-61
2021/08/24 00:14:33;;;;;;;2.40;2.20;;;17.30;99.90;;;;;;5050631;28;20472;-60
2021/08/24 00:17:00;;;;;;;2.40;2.20;;;17.20;99.90;;;;;;5042759;28;20600;-60
2021/08/24 00:19:29;;;;;;;2.30;2.03;;;17.20;99.90;;;;;;5034851;28;20947;-59
2021/08/24 00:21:56;;;;;;;2.70;2.33;;;17.10;99.90;;;;;;5052064;28;20448;-59
2021/08/24 00:24:23;;;;;;;2.40;2.20;;;17.10;99.90;;;;;;5049762;28;20541;-60
2021/08/24 00:26:50;;;;;;;2.33;2.10;;;17.30;99.90;;;;;;5044250;28;20500;-60
2021/08/24 00:29:17;;;;;;;2.20;2.10;;;17.30;99.90;;;;;;5045365;28;20957;-60
2021/08/24 00:31:44;;;;;;;3.30;2.63;;;17.30;99.90;;;;;;5052135;28;20448;-60
2021/08/24 00:34:11;;;;;;;3.40;2.67;;;17.40;99.90;;;;;;5052128;28;20463;-60
2021/08/24 00:36:39;;;;;;;2.40;2.20;;;17.30;99.90;;;;;;5052997;28;20514;-60
2021/08/24 00:39:06;;;;;;;2.77;2.57;;;17.20;99.90;;;;;;5052653;28;20448;-59
2021/08/24 00:41:35;;;;;;;2.40;2.20;;;17.00;99.90;;;;;;5052301;28;20463;-59
2021/08/24 00:44:03;;;;;;;2.77;2.53;;;17.10;99.90;;;;;;5050822;28;20533;-60
2021/08/24 00:46:35;;;;;;;3.60;2.30;;;17.00;99.90;;;;;;5050354;28;20451;-60
2021/08/24 00:49:07;;;;;;;2.73;2.40;;;17.00;99.90;;;;;;5051931;28;20444;-59
2021/08/24 00:51:36;;;;;;;4.57;2.90;;;16.90;99.90;;;;;;5051856;28;20868;-59
2021/08/24 00:54:07;;;;;;;3.27;2.83;;;16.70;99.90;;;;;;5052647;28;20533;-60
2021/08/24 00:56:34;;;;;;;2.80;2.60;;;16.50;99.90;;;;;;5052108;28;20894;-59
2021/08/24 00:59:03;;;;;;;2.70;2.50;;;16.30;99.90;;;;;;5052137;28;20451;-59
2021/08/24 01:01:30;;;;;;;2.57;2.33;;;16.20;99.90;;;;;;5051978;28;20517;-60
2021/08/24 01:03:59;;;;;;;3.73;2.37;;;16.20;99.90;;;;;;5052388;28;20989;-59
2021/08/24 01:06:37;;;;;;;3.10;2.80;;;16.10;99.90;;;;;;5034435;28;20448;-59
2021/08/24 01:09:26;;;;;;;3.03;2.43;;;16.10;99.90;;;;;;5039163;28;20448;-59
2021/08/24 01:12:03;;;;;;;3.10;2.80;;;16.00;99.90;;;;;;5052273;28;20468;-59
2021/08/24 01:14:41;;;;;;;3.73;2.57;;;15.90;99.90;;;;;;5050894;28;20980;-59
2021/08/24 01:17:14;;;;;;;2.33;2.13;;;15.80;99.90;;;;;;5040637;28;20456;-59
2021/08/24 01:20:11;;;;;;;2.63;2.43;;;15.80;99.90;;;;;;5051363;28;20448;-59
2021/08/24 01:23:14;;;;;;;3.63;2.37;;;15.70;99.90;;;;;;5048729;28;20447;-59
2021/08/24 01:25:47;;;;;;;2.83;2.50;;;15.60;99.90;;;;;;5051679;28;20494;-59
2021/08/24 01:28:21;;;;;;;3.17;2.10;;;15.60;99.90;;;;;;5052408;28;20443;-59
2021/08/24 01:31:36;;;;;;;2.50;2.30;;;15.50;99.90;;;;;;5050687;28;20468;-59
2021/08/24 01:34:16;;;;;;;3.10;2.60;;;15.40;99.90;;;;;;5022525;28;20480;-59
2021/08/24 01:36:47;;;;;;;2.53;2.33;;;15.30;99.90;;;;;;5050620;28;20459;-59
2021/08/24 01:39:21;;;;;;;2.60;2.40;;;15.30;99.90;;;;;;5051453;28;20448;-59
2021/08/24 01:42:12;;;;;;;2.87;2.67;;;15.20;99.90;;;;;;5049161;28;20452;-61
2021/08/24 01:44:46;;;;;;;3.10;2.50;;;15.10;99.90;;;;;;5049971;28;20556;-59
2021/08/24 01:47:22;;;;;;;3.63;2.50;;;15.00;99.90;;;;;;5044266;28;20508;-60
2021/08/24 01:49:57;;;;;;;2.60;2.40;;;15.00;99.90;;;;;;5050644;28;20908;-59
2021/08/24 01:52:40;;;;;;;3.40;2.70;;;14.90;99.90;;;;;;5051228;28;20497;-59
2021/08/24 01:55:13;;;;;;;3.00;2.70;;;14.90;99.90;;;;;;5051175;28;20479;-59
2021/08/24 01:57:47;;;;;;;3.00;2.70;;;14.80;99.90;;;;;;5051945;28;20447;-59
2021/08/24 02:00:15;;;;;;;3.90;2.80;;;14.80;99.90;;;;;;5050794;28;20505;-59
2021/08/24 02:02:49;;;;;;;3.40;2.90;;;14.80;99.90;;;;;;5051200;28;20448;-60
2021/08/24 02:05:20;;;;;;;4.27;2.90;;;14.70;99.90;;;;;;5049619;28;20467;-59
2021/08/24 02:07:52;;;;;;;3.73;2.90;;;14.70;99.90;;;;;;5051610;28;20518;-59
2021/08/24 02:10:22;;;;;;;5.27;3.00;;;14.60;99.90;;;;;;5051719;28;20509;-59
2021/08/24 02:12:52;;;;;;;3.03;2.70;;;14.60;99.90;;;;;;5050345;28;20456;-59
2021/08/24 02:15:24;;;;;;;3.20;2.90;;;14.60;99.90;;;;;;5050497;28;20475;-59
2021/08/24 02:17:53;;;;;;;3.37;2.80;;;14.50;99.90;;;;;;5051482;28;20444;-59
2021/08/24 02:20:24;;;;;;;2.83;2.63;;;14.40;99.90;;;;;;5051747;28;20455;-59
2021/08/24 02:22:57;;;;;;;3.50;3.07;;;14.40;99.90;;;;;;5050502;28;20869;-59
2021/08/24 02:25:29;;;;;;;3.70;3.30;;;14.30;99.90;;;;;;5047321;28;20534;-59
2021/08/24 02:28:01;;;;;;;3.53;3.23;;;14.30;99.90;;;;;;5051422;28;20879;-59
2021/08/24 02:30:30;;;;;;;2.90;2.63;;;14.30;99.90;;;;;;5051637;28;20437;-59
2021/08/24 02:32:58;;;;;;;2.50;2.30;;;14.30;99.90;;;;;;5050373;28;20502;-59
2021/08/24 02:35:32;;;;;;;3.10;2.80;;;14.20;99.90;;;;;;5048170;28;20533;-59
2021/08/24 02:38:05;;;;;;;2.80;2.60;;;14.20;99.90;;;;;;5051515;28;20505;-59
2021/08/24 02:40:39;;;;;;;2.83;2.53;;;14.20;99.90;;;;;;5050984;28;20452;-59
2021/08/24 02:43:17;;;;;;;3.20;2.90;;;14.10;99.90;;;;;;5050331;28;20501;-59
2021/08/24 02:45:51;;;;;;;2.90;2.70;;;14.20;99.90;;;;;;5050668;28;20475;-59
2021/08/24 02:48:20;;;;;;;3.57;2.77;;;14.20;99.90;;;;;;5051176;28;20470;-59
2021/08/24 02:50:49;;;;;;;4.90;3.20;;;14.10;99.90;;;;;;5051318;28;20957;-59
2021/08/24 02:53:20;;;;;;;4.70;3.30;;;14.20;99.90;;;;;;5049936;28;20493;-59
2021/08/24 02:55:48;;;;;;;4.40;2.80;;;14.20;99.90;;;;;;5049350;28;20480;-59
2021/08/24 02:58:15;;;;;;;3.67;3.20;;;14.20;99.90;;;;;;5054341;28;20894;-59
2021/08/24 03:00:42;;;;;;;3.87;3.47;;;14.20;99.90;;;;;;5055420;28;20451;-59
2021/08/24 03:03:09;;;;;;;4.40;3.37;;;14.30;99.90;;;;;;5053822;28;20451;-58
2021/08/24 03:05:36;;;;;;;3.43;3.13;;;14.30;99.90;;;;;;5054371;28;20468;-59
2021/08/24 03:08:03;;;;;;;4.13;3.10;;;14.40;99.90;;;;;;5055202;28;20451;-59
2021/08/24 03:10:36;;;;;;;3.63;3.20;;;14.40;99.90;;;;;;5055035;28;20452;-59
2021/08/24 03:13:11;;;;;;;5.13;3.67;;;14.50;99.90;;;;;;5053863;28;20900;-60
2021/08/24 03:15:47;;;;;;;3.03;2.83;;;14.50;99.90;;;;;;5052111;28;20471;-59
2021/08/24 03:18:18;;;;;;;3.30;2.93;;;14.50;99.90;;;;;;5054818;28;20447;-59
2021/08/24 03:20:48;;;;;;;3.23;2.87;;;14.60;99.90;;;;;;5054486;28;20448;-59
2021/08/24 03:23:17;;;;;;;3.10;2.80;;;14.60;99.90;;;;;;5053285;28;20451;-60
2021/08/24 03:25:48;;;;;;;3.40;3.00;;;14.60;99.90;;;;;;5053489;28;20471;-59
2021/08/24 03:28:17;;;;;;;3.77;3.27;;;14.70;99.90;;;;;;5034995;28;20453;-59
2021/08/24 03:30:44;;;;;;;4.93;3.67;;;14.70;99.90;;;;;;5046584;28;20447;-59
2021/08/24 03:33:13;;;;;;;3.83;3.47;;;14.70;99.90;;;;;;5053401;28;20451;-59
2021/08/24 03:35:40;;;;;;;3.10;2.80;;;14.70;99.90;;;;;;5053117;28;20476;-59
2021/08/24 03:38:09;;;;;;;3.20;2.90;;;14.70;99.90;;;;;;5054434;28;20506;-59
2021/08/24 03:40:36;;;;;;;3.30;3.00;;;14.70;99.90;;;;;;5053898;28;20831;-59
2021/08/24 03:43:05;;;;;;;3.70;3.20;;;14.70;99.90;;;;;;5052935;28;20509;-59
2021/08/24 03:45:32;;;;;;;3.43;3.00;;;14.60;99.90;;;;;;5053577;28;21046;-59
2021/08/24 03:47:59;;;;;;;3.40;3.10;;;14.70;99.90;;;;;;5054367;28;20451;-59
2021/08/24 03:50:26;;;;;;;4.07;3.67;;;14.70;99.90;;;;;;5054060;28;20444;-60
2021/08/24 03:52:53;;;;;;;4.47;3.43;;;14.80;99.90;;;;;;5053097;28;20444;-59
2021/08/24 03:55:20;;;;;;;3.10;2.80;;;14.70;99.90;;;;;;5053398;28;20609;-59
2021/08/24 03:57:47;;;;;;;3.10;2.77;;;14.80;99.90;;;;;;5054313;28;20444;-59
2021/08/24 04:00:17;;;;;;;4.07;2.90;;;14.80;99.90;;;;;;5054243;28;20569;-59
2021/08/24 04:02:44;;;;;;;6.00;2.60;;;14.80;99.90;;;;;;5052137;28;20517;-59
2021/08/24 04:05:12;;;;;;;3.47;2.80;;;14.80;99.90;;;;;;5052876;28;20483;-59
2021/08/24 04:07:39;;;;;;;3.43;2.80;;;14.90;99.90;;;;;;5044713;28;21013;-59
2021/08/24 04:10:08;;;;;;;3.30;3.00;;;15.00;99.90;;;;;;5037261;28;21123;-59
2021/08/24 04:12:35;;;;;;;3.20;2.73;;;15.10;99.90;;;;;;5052598;28;20531;-59
2021/08/24 04:15:02;;;;;;;5.60;3.00;;;15.20;99.90;;;;;;5053267;28;20468;-60
2021/08/24 04:17:32;;;;;;;3.33;3.03;;;15.30;99.90;;;;;;5048832;28;20455;-60
2021/08/24 04:19:59;;;;;;;5.50;2.80;;;15.30;99.90;;;;;;5047065;28;21029;-59
2021/08/24 04:22:26;;;;;;;2.93;2.73;;;15.30;99.90;;;;;;5040793;28;20441;-59
2021/08/24 04:24:53;;;;;;;3.00;2.70;;;15.50;99.90;;;;;;5038202;28;20606;-59
2021/08/24 04:27:24;;;;;;;2.80;2.50;;;15.50;99.90;;;;;;5034825;28;20452;-60
2021/08/24 04:29:51;;;;;;;2.73;2.53;;;15.60;99.90;;;;;;5051555;28;20444;-60
2021/08/24 04:32:24;;;;;;;3.10;2.80;;;15.70;99.90;;;;;;5050982;28;20505;-59
2021/08/24 04:34:52;;;;;;;2.80;2.60;;;15.80;99.90;;;;;;5040638;28;20885;-60
2021/08/24 04:37:19;;;;;;;3.10;2.80;;;15.80;99.90;;;;;;5051377;28;20961;-60
2021/08/24 04:39:46;;;;;;;3.00;2.40;;;15.80;99.90;;;;;;5050369;28;20477;-60
2021/08/24 04:42:14;;;;;;;4.50;4.10;;;15.80;99.90;;;;;;5032603;28;20533;-59
2021/08/24 04:44:41;;;;;;;4.43;2.87;;;15.90;99.90;;;;;;5038617;28;20552;-60
2021/08/24 04:47:08;;;;;;;2.83;2.60;;;15.80;99.90;;;;;;5049923;28;20447;-60
2021/08/24 04:49:35;;;;;;;4.53;3.00;;;15.80;99.90;;;;;;5051097;28;20452;-59
2021/08/24 04:52:04;;;;;;;3.87;3.17;;;16.00;99.90;;;;;;5051180;28;20447;-60
2021/08/24 04:54:33;;;;;;;3.80;2.53;;;16.20;99.90;;;;;;5045681;28;20535;-60
2021/08/24 04:57:01;;;;;;;2.93;2.70;;;16.30;99.90;;;;;;5032644;28;20984;-60
2021/08/24 04:59:28;;;;;;;2.80;2.60;;;16.00;99.90;;;;;;5048755;28;20447;-59
2021/08/24 05:01:55;;;;;;;2.83;2.63;;;16.00;99.90;;;;;;5039881;28;20449;-60
2021/08/24 05:04:23;;;;;;;3.23;2.83;;;15.90;99.90;;;;;;5032532;28;20487;-59
2021/08/24 05:06:51;;;;;;;3.60;3.30;;;15.90;99.90;;;;;;5035826;28;20514;-59
2021/08/24 05:09:21;;;;;;;3.40;3.13;;;15.80;99.90;;;;;;5043397;28;20522;-59
2021/08/24 05:11:49;;;;;;;3.87;3.13;;;15.60;99.90;;;;;;5032191;28;20444;-61
2021/08/24 05:14:17;;;;;;;3.50;3.20;;;15.40;99.90;;;;;;5031879;28;20919;-60
2021/08/24 05:16:44;;;;;;;5.33;3.37;;;15.50;99.90;;;;;;5032118;28;20524;-60
2021/08/24 05:19:11;;;;;;;3.30;2.93;;;15.60;99.90;;;;;;5044895;28;20460;-60
2021/08/24 05:21:39;;;;;;;3.50;3.00;;;15.60;99.90;;;;;;5051866;28;20452;-60
2021/08/24 05:24:07;;;;;;;4.20;3.00;;;15.60;99.90;;;;;;5051847;28;20484;-60
2021/08/24 05:26:35;;;;;;;3.83;3.53;;;15.70;99.90;;;;;;5051091;28;20830;-60
2021/08/24 05:29:02;;;;;;;4.73;3.17;;;15.80;99.90;;;;;;5051164;28;20451;-60
2021/08/24 05:31:29;;;;;;;7.37;5.20;;;15.80;99.90;;;;;;5051352;28;20451;-61
2021/08/24 05:33:56;;;;;;;3.20;2.90;;;16.00;99.90;;;;;;5049795;28;20852;-60
2021/08/24 05:36:23;;;;;;;3.80;3.40;;;16.00;99.90;;;;;;5050692;28;20458;-60
2021/08/24 05:38:51;;;;;;;4.07;3.60;;;16.10;99.90;;;;;;5051864;28;20455;-60
2021/08/24 05:41:18;;;;;;;3.90;3.47;;;16.10;99.90;;;;;;5051279;28;20448;-60
2021/08/24 05:43:46;;;;;;;6.10;3.63;;;15.80;99.90;;;;;;5049935;28;20456;-60
2021/08/24 05:46:17;;;;;;;5.90;4.50;;;15.70;99.90;;;;;;5051095;28;20513;-60
2021/08/24 05:48:44;;;;;;;5.70;5.20;;;15.60;99.90;;;;;;5051608;28;20451;-60
2021/08/24 05:51:12;;;;;;;4.40;4.00;;;15.60;99.90;;;;;;5051138;28;20452;-60
2021/08/24 05:53:40;;;;;;;4.33;3.93;;;15.50;99.90;;;;;;5051192;28;20452;-60
2021/08/24 05:56:09;;;;;;;4.10;3.70;;;15.60;99.90;;;;;;5050985;28;20863;-60
2021/08/24 05:58:36;;;;;;;3.57;3.23;;;15.60;99.90;;;;;;5045778;28;20448;-59
2021/08/24 06:01:04;;;;;;;4.20;3.50;;;15.50;99.90;;;;;;5045236;28;20471;-60
2021/08/24 06:03:32;;;;;;;3.90;3.43;;;15.50;99.90;;;;;;5050275;28;20497;-59
2021/08/24 06:05:59;;;;;;;4.40;3.30;;;15.50;99.90;;;;;;5050430;28;20479;-59
2021/08/24 06:08:26;;;;;;;3.30;3.00;;;15.50;99.90;;;;;;5051285;28;20953;-59
2021/08/24 06:10:53;;;;;;;4.77;3.53;;;15.50;99.90;;;;;;5044133;28;20463;-59
2021/08/24 06:13:20;;;;;;;5.90;4.13;;;15.50;99.90;;;;;;5047737;28;20517;-59
2021/08/24 06:15:47;;;;;;;4.70;3.63;;;15.50;99.90;;;;;;5050316;28;21050;-59
2021/08/24 06:18:16;;;;;;;5.07;3.53;;;15.50;99.90;;;;;;5044465;28;20506;-60
2021/08/24 06:20:43;;;;;;;5.50;4.77;;;15.40;99.90;;;;;;5047765;28;20464;-60
2021/08/24 06:23:10;;;;;;;4.60;3.50;;;15.40;99.90;;;;;;5041759;28;20552;-59
2021/08/24 06:25:37;;;;;;;4.17;3.77;;;15.40;99.90;;;;;;5040351;28;20985;-59
2021/08/24 06:28:04;;;;;;;5.03;3.30;;;15.40;99.90;;;;;;5036445;28;20934;-59
2021/08/24 06:30:32;;;;;;;7.10;3.67;;;15.40;99.90;;;;;;5039283;28;20490;-59
2021/08/24 06:32:59;;;;;;;5.70;3.37;;;15.30;99.90;;;;;;5049980;28;20469;-59
2021/08/24 06:35:28;;;;;;;4.57;3.27;;;15.40;99.90;;;;;;5034507;28;20456;-59
2021/08/24 06:37:55;;;;;;;4.30;3.70;;;15.40;99.90;;;;;;5034854;28;20877;-60
2021/08/24 06:40:22;;;;;;;4.13;3.67;;;15.50;99.90;;;;;;5034915;28;20452;-60
2021/08/24 06:42:52;;;;;;;3.90;3.10;;;15.50;99.90;;;;;;5047602;28;20447;-59
2021/08/24 06:45:21;;;;;;;4.30;3.60;;;15.50;99.90;;;;;;5054899;28;20482;-59
2021/08/24 06:47:50;;;;;;;6.30;3.83;;;15.40;99.90;;;;;;5054011;28;20451;-59
2021/08/24 06:50:17;;;;;;;3.67;3.27;;;15.50;99.90;;;;;;5054065;28;20526;-59
2021/08/24 06:52:45;;;;;;;3.77;3.37;;;15.50;99.90;;;;;;5054773;28;20460;-59
2021/08/24 06:55:13;;;;;;;4.53;3.27;;;15.60;99.90;;;;;;5047047;28;20476;-60
2021/08/24 06:57:40;;;;;;;4.50;3.20;;;15.70;99.90;;;;;;5051558;28;20489;-60
2021/08/24 07:00:13;;;;;;;4.63;3.50;;;15.80;99.90;;;;;;5048945;28;20447;-59
2021/08/24 07:02:41;;;;;;;3.90;3.40;;;16.00;99.90;;;;;;5034579;28;20440;-60
2021/08/24 07:05:10;;;;;;;4.87;3.70;;;16.20;99.90;;;;;;5055650;28;20483;-60
2021/08/24 07:07:37;;;;;;;7.03;4.13;;;16.20;99.90;;;;;;5054729;28;20551;-59
2021/08/24 07:10:07;;;;;;;4.97;3.77;;;16.00;99.90;;;;;;5054475;28;20447;-59
2021/08/24 07:12:35;;;;;;;3.87;3.30;;;15.90;99.90;;;;;;5054037;28;20889;-59
2021/08/24 07:15:02;;;;;;;4.10;3.30;;;16.00;99.90;;;;;;5054885;28;20467;-60
2021/08/24 07:17:29;;;;;;;4.10;3.60;;;15.90;99.90;;;;;;5054060;28;20462;-59
2021/08/24 07:19:56;;;;;;;6.07;3.30;;;15.90;99.90;;;;;;5054458;28;20941;-60
2021/08/24 07:22:23;;;;;;;7.50;3.73;;;15.90;99.90;;;;;;5054050;28;20455;-60
2021/08/24 07:24:49;;;;;;;4.87;3.57;;;15.90;99.90;;;;;;5054530;28;21030;-59
2021/08/24 07:27:18;;;;;;;3.30;3.00;;;15.90;99.90;;;;;;5054353;28;20525;-59
2021/08/24 07:29:45;;;;;;;3.73;3.03;;;16.00;99.90;;;;;;5053662;28;20447;-59
2021/08/24 07:32:12;;;;;;;5.30;3.30;;;16.10;99.90;;;;;;5054331;28;20448;-59
2021/08/24 07:34:39;;;;;;;4.03;3.63;;;16.30;99.90;;;;;;5054285;28;20460;-60
2021/08/24 07:37:06;;;;;;;3.30;3.00;;;16.20;99.90;;;;;;5054475;28;20501;-59
2021/08/24 07:39:33;;;;;;;3.30;3.00;;;16.30;99.90;;;;;;5054591;28;20447;-59
2021/08/24 07:42:00;;;;;;;3.73;3.17;;;16.20;99.90;;;;;;5052607;28;20452;-59
2021/08/24 07:44:31;;;;;;;3.43;2.90;;;16.10;99.90;;;;;;5054127;28;20467;-59
2021/08/24 07:46:59;;;;;;;3.70;3.37;;;16.20;99.90;;;;;;5035997;28;20452;-59
2021/08/24 07:49:26;;;;;;;3.70;3.30;;;16.10;99.90;;;;;;5054474;28;20458;-59
2021/08/24 07:51:55;;;;;;;3.70;3.13;;;16.00;99.90;;;;;;5053319;28;20455;-59
2021/08/24 07:54:22;;;;;;;3.23;3.00;;;16.00;99.90;;;;;;5053618;28;20496;-59
2021/08/24 07:56:49;;;;;;;4.20;3.80;;;16.10;99.90;;;;;;5051644;28;20950;-60
2021/08/24 07:59:16;;;;;;;4.47;2.97;;;16.10;99.90;;;;;;5053389;28;20452;-60
2021/08/24 08:01:44;;;;;;;3.57;3.20;;;16.20;99.90;;;;;;5053817;28;20448;-60
2021/08/24 08:04:12;;;;;;;3.40;3.10;;;16.30;99.90;;;;;;5053532;28;20532;-60
2021/08/24 08:06:40;;;;;;;3.17;2.87;;;16.50;99.90;;;;;;5053720;28;20529;-60
2021/08/24 08:09:07;;;;;;;2.70;2.50;;;16.60;99.90;;;;;;5053955;28;20988;-60
2021/08/24 08:11:36;;;;;;;2.57;2.20;;;16.60;99.90;;;;;;5052982;28;20459;-61
2021/08/24 08:14:05;;;;;;;3.07;2.77;;;16.70;99.90;;;;;;5053085;28;20533;-60
2021/08/24 08:16:32;;;;;;;4.47;2.60;;;16.80;99.90;;;;;;5052938;28;20456;-60
2021/08/24 08:19:00;;;;;;;2.63;2.20;;;16.70;99.90;;;;;;5045025;28;20979;-60
2021/08/24 08:21:30;;;;;;;2.93;2.63;;;16.70;99.90;;;;;;5052733;28;20460;-60
2021/08/24 08:23:58;;;;;;;2.13;1.90;;;16.70;99.90;;;;;;5047341;28;21161;-60
2021/08/24 08:26:26;;;;;;;5.63;2.50;;;16.90;99.90;;;;;;5052325;28;20492;-60
2021/08/24 08:28:55;;;;;;;2.73;2.20;;;16.80;99.90;;;;;;5052149;28;20491;-60
2021/08/24 08:31:24;;;;;;;2.50;2.30;;;16.90;99.90;;;;;;5049127;28;20450;-60
2021/08/24 08:33:53;;;;;;;3.40;2.60;;;16.70;99.90;;;;;;5045880;28;20709;-59
2021/08/24 08:36:22;;;;;;;2.80;2.47;;;16.60;99.90;;;;;;5033513;28;20453;-59
2021/08/24 08:38:49;;;;;;;2.40;2.20;;;16.40;99.90;;;;;;5044186;28;20513;-59
2021/08/24 08:41:27;;;;;;;5.13;2.37;;;16.40;99.90;;;;;;5053481;28;20451;-59
2021/08/24 08:43:59;;;;;;;2.53;2.20;;;16.30;99.90;;;;;;5053221;28;20448;-59
2021/08/24 08:46:39;;;;;;;2.97;2.70;;;16.40;99.90;;;;;;5052770;28;20533;-59
2021/08/24 08:49:15;;;;;;;4.40;2.47;;;16.50;99.90;;;;;;5042382;28;20448;-59
2021/08/24 08:51:54;;;;;;;2.27;2.07;;;16.50;99.90;;;;;;5052857;28;20501;-59
2021/08/24 08:54:31;;;;;;;2.07;1.70;;;16.60;99.90;;;;;;5048873;28;20471;-60
2021/08/24 08:57:03;;;;;;;2.97;2.30;;;16.70;99.90;;;;;;5035069;28;20521;-59
2021/08/24 08:59:38;;;;;;;2.30;2.07;;;16.80;99.90;;;;;;5042381;28;20695;-59
2021/08/24 09:02:24;;;;;;;5.13;2.30;;;16.90;99.90;;;;;;5045891;28;20463;-58
2021/08/24 09:04:52;;;;;;;3.73;2.40;;;16.80;99.90;;;;;;5045309;28;20533;-58
2021/08/24 09:07:29;;;;;;;2.90;1.93;;;16.90;99.90;;;;;;5042836;28;20541;-58
2021/08/24 09:09:56;;;;;;;2.07;1.87;;;17.00;99.90;;;;;;5040113;28;20965;-58
2021/08/24 09:12:27;;;;;;;2.23;2.03;;;17.00;99.90;;;;;;5046765;28;20521;-58
2021/08/24 09:14:58;;;;;;;2.10;1.90;;;17.20;99.90;;;;;;5042966;28;20479;-61
2021/08/24 09:17:30;;;;;;;2.23;2.03;;;17.20;99.90;;;;;;5043742;28;20529;-58
2021/08/24 09:20:02;;;;;;;2.60;2.40;;;17.20;99.90;;;;;;5043731;28;20513;-59
2021/08/24 09:22:31;;;;;;;4.77;2.63;;;17.10;99.90;;;;;;5044691;28;20483;-60
2021/08/24 09:24:58;;;;;;;5.50;2.40;;;17.10;99.90;;;;;;5051290;28;20532;-58
2021/08/24 09:27:42;;;;;;;2.60;2.00;;;16.90;99.90;;;;;;5050679;28;20839;-58
2021/08/24 09:30:10;;;;;;;2.53;2.17;;;17.00;99.90;;;;;;5037700;28;20464;-58
2021/08/24 09:32:38;;;;;;;2.70;2.00;;;17.30;99.90;;;;;;5046904;28;20548;-58
2021/08/24 09:35:19;;;;;;;3.20;2.40;;;17.20;99.90;;;;;;5045292;28;20977;-58
2021/08/24 09:37:47;;;;;;;2.67;2.33;;;17.30;99.90;;;;;;5051484;28;21046;-58
2021/08/24 09:40:15;;;;;;;3.20;2.00;;;17.60;99.90;;;;;;5051090;28;20439;-60
2021/08/24 09:42:44;;;;;;;3.43;2.47;;;17.90;99.90;;;;;;5043015;28;20973;-58
2021/08/24 09:45:27;;;;;;;3.57;2.30;;;18.20;99.90;;;;;;5050512;28;21047;-59
2021/08/24 09:48:07;;;;;;;2.50;2.00;;;18.40;99.90;;;;;;5041538;28;20513;-59
2021/08/24 09:50:36;;;;;;;2.17;1.97;;;18.40;99.90;;;;;;5047836;28;20497;-60
2021/08/24 09:53:05;;;;;;;2.83;2.43;;;19.20;99.90;;;;;;5050380;28;21059;-60
2021/08/24 09:55:41;;;;;;;4.40;2.20;;;19.60;99.90;;;;;;5048917;28;21059;-60
2021/08/24 09:58:28;;;;;;;3.30;1.87;;;20.40;99.90;;;;;;5044632;28;20475;-60
2021/08/24 10:00:57;;;;;;;2.37;2.17;;;20.90;99.90;;;;;;5050793;28;20455;-60
2021/08/24 10:03:31;;;;;;;2.40;2.20;;;20.00;99.90;;;;;;5051180;28;20521;-59
2021/08/24 10:06:05;;;;;;;2.47;2.27;;;19.50;99.90;;;;;;5050687;28;20487;-59
2021/08/24 10:08:36;;;;;;;4.00;2.60;;;18.70;99.90;;;;;;5045436;28;20953;-59
2021/08/24 10:11:08;;;;;;;2.43;2.23;;;18.20;99.90;;;;;;5051505;28;20448;-59
2021/08/24 10:13:38;;;;;;;3.07;2.77;;;18.20;99.90;;;;;;5051046;28;20443;-59
2021/08/24 10:16:09;;;;;;;2.33;2.07;;;18.40;99.90;;;;;;5048755;28;20513;-60
2021/08/24 10:18:37;;;;;;;2.40;2.20;;;19.10;99.90;;;;;;5047669;28;20456;-59
2021/08/24 10:21:06;;;;;;;2.50;2.30;;;19.20;99.90;;;;;;5050767;28;20451;-60
2021/08/24 10:23:40;;;;;;;2.60;2.40;;;19.40;99.90;;;;;;5051333;28;20443;-59
2021/08/24 10:26:09;;;;;;;3.50;2.87;;;18.80;99.90;;;;;;5043586;28;20535;-59
2021/08/24 10:28:48;;;;;;;2.47;2.27;;;18.30;99.90;;;;;;5046362;28;20886;-59
2021/08/24 10:31:29;;;;;;;2.50;2.30;;;18.10;99.90;;;;;;5042379;28;20953;-58
2021/08/24 10:34:00;;;;;;;2.83;2.63;;;18.40;99.90;;;;;;5034665;28;22295;-58
2021/08/24 10:36:32;;;;;;;2.60;2.40;;;18.20;99.90;;;;;;5048768;28;20505;-59
2021/08/24 10:39:04;;;;;;;2.80;2.60;;;18.00;99.90;;;;;;5051172;28;20474;-59
2021/08/24 10:41:35;;;;;;;3.43;2.90;;;18.00;99.90;;;;;;5049303;28;20463;-59
2021/08/24 10:44:08;;;;;;;4.23;3.00;;;18.20;99.90;;;;;;5042613;28;20893;-58
2021/08/24 10:46:55;;;;;;;3.10;2.30;;;18.00;99.90;;;;;;5048088;28;20479;-59
2021/08/24 10:49:22;;;;;;;3.50;3.20;;;17.90;99.90;;;;;;5050871;28;21011;-59
2021/08/24 10:52:09;;;;;;;4.93;3.37;;;17.50;99.90;;;;;;5032173;28;20894;-59
2021/08/24 10:54:57;;;;;;;3.37;2.90;;;17.60;99.90;;;;;;5031132;28;20480;-58
2021/08/24 10:57:45;;;;;;;4.83;2.90;;;17.70;99.90;;;;;;5031707;28;20448;-59
2021/08/24 11:00:37;;;;;;;8.10;3.20;;;17.80;99.90;;;;;;5031227;28;20526;-58
2021/08/24 11:03:26;;;;;;;2.83;2.60;;;17.90;99.90;;;;;;5030938;28;20859;-58
2021/08/24 11:05:59;;;;;;;3.00;2.80;;;18.00;99.90;;;;;;5049927;28;20566;-59
2021/08/24 11:08:38;;;;;;;4.03;3.20;;;18.20;99.90;;;;;;5050750;28;20456;-59
2021/08/24 11:11:19;;;;;;;4.43;3.50;;;18.10;99.90;;;;;;5050115;28;20447;-59
2021/08/24 11:13:57;;;;;;;3.20;2.90;;;18.40;99.90;;;;;;5050648;28;20447;-60
2021/08/24 11:16:45;;;;;;;4.37;3.40;;;18.80;99.90;;;;;;5050597;28;20443;-60
2021/08/24 11:19:28;;;;;;;3.77;3.00;;;19.10;99.90;;;;;;5053649;28;20505;-60
2021/08/24 11:22:05;;;;;;;2.60;2.40;;;19.20;99.90;;;;;;5054314;28;20866;-60
2021/08/24 11:24:43;;;;;;;4.00;2.90;;;19.60;99.90;;;;;;5054488;28;20471;-59
2021/08/24 11:27:17;;;;;;;3.10;2.80;;;19.40;99.90;;;;;;5054481;28;20483;-59
2021/08/24 11:29:49;;;;;;;3.23;2.93;;;19.40;99.90;;;;;;5048697;28;20517;-59
2021/08/24 11:32:22;;;;;;;4.90;2.90;;;19.30;99.90;;;;;;5040487;28;20459;-59
2021/08/24 11:34:55;;;;;;;5.10;3.20;;;19.40;99.90;;;;;;5046623;28;20520;-59
2021/08/24 11:37:26;;;;;;;3.03;2.73;;;18.90;99.90;;;;;;5044907;28;20980;-59
2021/08/24 11:39:58;;;;;;;5.53;3.50;;;18.90;99.90;;;;;;5033749;28;20510;-59
2021/08/24 11:42:33;;;;;;;3.70;3.10;;;18.80;99.90;;;;;;5035821;28;20499;-59
2021/08/24 11:45:01;;;;;;;3.27;2.97;;;19.00;99.90;;;;;;5052434;28;20467;-58
2021/08/24 11:47:36;;;;;;;3.30;3.00;;;19.20;99.90;;;;;;5049765;28;20483;-59
2021/08/24 11:50:09;;;;;;;4.77;3.30;;;19.00;99.90;;;;;;5048860;28;20447;-58
2021/08/24 11:52:46;;;;;;;5.30;3.50;;;18.80;99.90;;;;;;5047804;28;20453;-59
2021/08/24 11:55:20;;;;;;;4.50;3.30;;;18.80;99.90;;;;;;5034691;28;20504;-59
2021/08/24 11:57:55;;;;;;;2.87;2.67;;;18.70;99.90;;;;;;5045102;28;20491;-58
2021/08/24 12:00:22;;;;;;;3.30;3.00;;;18.80;99.90;;;;;;5041671;28;20460;-58
2021/08/24 12:02:51;;;;;;;3.53;2.60;;;18.90;99.90;;;;;;5045414;28;20471;-58
2021/08/24 12:05:22;;;;;;;3.77;3.13;;;18.60;99.90;;;;;;5041976;28;20484;-58
2021/08/24 12:07:57;;;;;;;3.63;3.33;;;18.60;99.90;;;;;;5033526;28;20853;-58
2021/08/24 12:10:27;;;;;;;3.60;3.30;;;18.60;99.90;;;;;;5033563;28;20447;-58
2021/08/24 12:12:58;;;;;;;3.30;3.07;;;18.40;99.90;;;;;;5041912;28;20494;-58
2021/08/24 12:15:31;;;;;;;3.70;3.40;;;18.40;99.90;;;;;;5048104;28;20466;-58
2021/08/24 12:18:07;;;;;;;2.77;2.57;;;18.30;99.90;;;;;;5052917;28;20478;-58
2021/08/24 12:20:38;;;;;;;3.23;2.93;;;18.40;99.90;;;;;;5053968;28;20452;-59
2021/08/24 12:23:07;;;;;;;3.80;3.20;;;18.40;99.90;;;;;;5042532;28;20866;-59
2021/08/24 12:25:36;;;;;;;4.00;3.23;;;18.40;99.90;;;;;;5040925;28;20471;-59
2021/08/24 12:28:28;;;;;;;4.03;3.37;;;18.40;99.90;;;;;;5053604;28;20537;-60
2021/08/24 12:31:24;;;;;;;3.57;3.03;;;18.40;99.90;;;;;;5052226;28;20521;-59
2021/08/24 12:33:51;;;;;;;3.73;3.07;;;18.60;99.90;;;;;;5033470;28;20456;-58
2021/08/24 12:36:54;;;;;;;3.40;2.70;;;18.70;99.90;;;;;;5033582;28;20456;-59
2021/08/24 12:39:37;;;;;;;3.37;2.57;;;18.90;99.90;;;;;;5050430;28;20451;-59
2021/08/24 12:42:30;;;;;;;3.03;2.73;;;19.20;99.90;;;;;;5053326;28;20516;-59
2021/08/24 12:45:29;;;;;;;2.73;2.53;;;19.20;99.90;;;;;;5046130;28;20468;-59
2021/08/24 12:48:18;;;;;;;3.57;2.70;;;19.50;99.90;;;;;;4993073;28;20482;-59
2021/08/24 12:51:01;;;;;;;2.63;2.43;;;19.80;99.90;;;;;;5030287;28;20890;-59
2021/08/24 12:53:42;;;;;;;2.60;2.40;;;20.10;99.90;;;;;;5032989;28;20488;-59
2021/08/24 12:56:33;;;;;;;1.90;1.77;;;20.50;99.90;;;;;;5049763;28;20505;-59
2021/08/24 12:59:02;;;;;;;2.63;2.27;;;20.60;99.90;;;;;;5048684;28;21024;-59
2021/08/24 13:01:30;;;;;;;2.50;2.30;;;20.90;99.90;;;;;;5034025;28;20536;-58
2021/08/24 13:04:06;;;;;;;2.50;2.20;;;20.80;99.90;;;;;;5051936;28;21019;-59
2021/08/24 13:06:36;;;;;;;2.30;2.10;;;20.90;99.90;;;;;;5034878;28;20480;-59
2021/08/24 13:09:27;;;;;;;2.40;2.20;;;20.60;99.90;;;;;;5032972;28;20455;-59
2021/08/24 13:12:33;;;;;;;2.10;2.00;;;20.10;99.90;;;;;;5042063;28;20455;-59